sensor_id;sensor_type;location;lat;lon;timestamp;pressure;altitude;pressure_sealevel;temperature;humidity
71948;BME280;63257;55.082;38.772;2023-11-21T00:00:34;99124.97;;;-7.36;79.15
71948;BME280;63257;55.082;38.772;2023-11-21T00:02:59;99118.09;;;-7.41;79.25
71948;BME280;63257;55.082;38.772;2023-11-21T00:05:26;99091.56;;;-7.50;79.73
71948;BME280;63257;55.082;38.772;2023-11-21T00:07:51;99106.97;;;-7.46;79.81
71948;BME280;63257;55.082;38.772;2023-11-21T00:10:17;99115.53;;;-7.41;79.02
71948;BME280;63257;55.082;38.772;2023-11-21T00:12:44;99105.06;;;-7.72;79.58
71948;BME280;63257;55.082;38.772;2023-11-21T00:15:14;99107.75;;;-7.58;79.98
71948;BME280;63257;55.082;38.772;2023-11-21T00:17:41;99100.09;;;-7.55;79.89
71948;BME280;63257;55.082;38.772;2023-11-21T00:20:09;99110.19;;;-7.74;80.07
71948;BME280;63257;55.082;38.772;2023-11-21T00:22:38;99113.66;;;-7.69;80.48
71948;BME280;63257;55.082;38.772;2023-11-21T00:25:06;99087.13;;;-7.74;80.10
71948;BME280;63257;55.082;38.772;2023-11-21T00:27:37;99092.22;;;-7.80;80.01
71948;BME280;63257;55.082;38.772;2023-11-21T00:30:04;99104.22;;;-7.76;79.63
71948;BME280;63257;55.082;38.772;2023-11-21T00:32:33;99079.31;;;-7.94;80.50
71948;BME280;63257;55.082;38.772;2023-11-21T00:35:00;99117.78;;;-7.89;79.87
71948;BME280;63257;55.082;38.772;2023-11-21T00:37:26;99116.09;;;-7.86;80.17
71948;BME280;63257;55.082;38.772;2023-11-21T00:39:51;99109.91;;;-8.09;80.39
71948;BME280;63257;55.082;38.772;2023-11-21T00:42:18;99089.41;;;-8.11;80.60
71948;BME280;63257;55.082;38.772;2023-11-21T00:44:44;99120.34;;;-7.89;80.71
71948;BME280;63257;55.082;38.772;2023-11-21T00:47:11;99116.06;;;-7.90;80.03
71948;BME280;63257;55.082;38.772;2023-11-21T00:49:39;99117.75;;;-7.91;79.95
71948;BME280;63257;55.082;38.772;2023-11-21T00:52:06;99111.75;;;-7.96;79.97
71948;BME280;63257;55.082;38.772;2023-11-21T00:54:32;99110.00;;;-8.02;80.06
71948;BME280;63257;55.082;38.772;2023-11-21T00:56:59;99102.19;;;-8.14;80.32
71948;BME280;63257;55.082;38.772;2023-11-21T00:59:25;99110.81;;;-8.06;80.14
71948;BME280;63257;55.082;38.772;2023-11-21T01:01:50;99105.59;;;-8.18;80.55
71948;BME280;63257;55.082;38.772;2023-11-21T01:04:16;99086.00;;;-8.14;80.05
71948;BME280;63257;55.082;38.772;2023-11-21T01:06:42;99094.66;;;-7.97;79.68
71948;BME280;63257;55.082;38.772;2023-11-21T01:09:08;99092.06;;;-8.02;79.89
71948;BME280;63257;55.082;38.772;2023-11-21T01:11:36;99099.84;;;-7.86;79.78
71948;BME280;63257;55.082;38.772;2023-11-21T01:14:06;99087.13;;;-7.74;79.69
71948;BME280;63257;55.082;38.772;2023-11-21T01:16:34;99071.59;;;-7.97;79.26
71948;BME280;63257;55.082;38.772;2023-11-21T01:19:00;99088.75;;;-7.90;79.38
71948;BME280;63257;55.082;38.772;2023-11-21T01:21:29;99102.41;;;-7.86;79.61
71948;BME280;63257;55.082;38.772;2023-11-21T01:23:56;99079.34;;;-7.91;79.98
71948;BME280;63257;55.082;38.772;2023-11-21T01:26:23;99099.84;;;-7.89;78.91
71948;BME280;63257;55.082;38.772;2023-11-21T01:28:49;99063.03;;;-8.01;79.85
71948;BME280;63257;55.082;38.772;2023-11-21T01:31:15;99079.34;;;-7.88;79.68
71948;BME280;63257;55.082;38.772;2023-11-21T01:33:41;99101.66;;;-7.73;79.80
71948;BME280;63257;55.082;38.772;2023-11-21T01:36:07;99071.69;;;-7.86;79.51
71948;BME280;63257;55.082;38.772;2023-11-21T01:38:33;99068.25;;;-7.90;79.41
71948;BME280;63257;55.082;38.772;2023-11-21T01:41:00;99072.56;;;-7.79;79.56
71948;BME280;63257;55.082;38.772;2023-11-21T01:43:27;99094.03;;;-7.65;79.37
71948;BME280;63257;55.082;38.772;2023-11-21T01:45:56;99105.13;;;-7.66;79.12
71948;BME280;63257;55.082;38.772;2023-11-21T01:48:26;99107.72;;;-7.63;79.22
71948;BME280;63257;55.082;38.772;2023-11-21T01:50:53;99090.59;;;-7.69;78.41
71948;BME280;63257;55.082;38.772;2023-11-21T01:53:19;99109.38;;;-7.70;78.38
71948;BME280;63257;55.082;38.772;2023-11-21T01:55:46;99107.72;;;-7.63;77.99
71948;BME280;63257;55.082;38.772;2023-11-21T01:58:12;99135.97;;;-7.55;78.03
71948;BME280;63257;55.082;38.772;2023-11-21T02:00:38;99123.94;;;-7.64;78.41
71948;BME280;63257;55.082;38.772;2023-11-21T02:03:04;99147.91;;;-7.56;78.60
71948;BME280;63257;55.082;38.772;2023-11-21T02:05:30;99138.59;;;-7.46;78.43
71948;BME280;63257;55.082;38.772;2023-11-21T02:07:58;99135.97;;;-7.52;78.60
71948;BME280;63257;55.082;38.772;2023-11-21T02:10:24;99142.84;;;-7.50;78.38
71948;BME280;63257;55.082;38.772;2023-11-21T02:12:50;99134.22;;;-7.59;78.22
71948;BME280;63257;55.082;38.772;2023-11-21T02:15:18;99140.34;;;-7.40;78.11
71948;BME280;63257;55.082;38.772;2023-11-21T02:17:50;99146.38;;;-7.30;nan
71948;BME280;63257;55.082;38.772;2023-11-21T02:20:21;99161.78;;;-7.26;77.56
71948;BME280;63257;55.082;38.772;2023-11-21T02:22:52;99157.53;;;-7.21;77.49
71948;BME280;63257;55.082;38.772;2023-11-21T02:25:33;99141.13;;;-7.49;76.68
71948;BME280;63257;55.082;38.772;2023-11-21T02:28:01;99141.09;;;-7.52;77.68
71948;BME280;63257;55.082;38.772;2023-11-21T02:30:28;99122.31;;;-7.54;77.90
71948;BME280;63257;55.082;38.772;2023-11-21T02:32:56;99145.47;;;-7.37;77.72
71948;BME280;63257;55.082;38.772;2023-11-21T02:35:25;99147.97;;;-7.51;77.92
71948;BME280;63257;55.082;38.772;2023-11-21T02:37:52;99154.75;;;-7.53;77.94
71948;BME280;63257;55.082;38.772;2023-11-21T02:40:18;99145.38;;;-7.54;78.42
71948;BME280;63257;55.082;38.772;2023-11-21T02:42:49;99147.91;;;-7.57;78.54
71948;BME280;63257;55.082;38.772;2023-11-21T02:45:20;99138.44;;;-7.66;78.48
71948;BME280;63257;55.082;38.772;2023-11-21T02:47:47;99111.16;;;-7.59;77.94
71948;BME280;63257;55.082;38.772;2023-11-21T02:50:13;99142.84;;;-7.43;77.75
71948;BME280;63257;55.082;38.772;2023-11-21T02:52:39;99138.59;;;-7.44;77.96
71948;BME280;63257;55.082;38.772;2023-11-21T02:55:08;99115.44;;;-7.58;77.79
71948;BME280;63257;55.082;38.772;2023-11-21T02:57:34;99119.75;;;-7.54;77.75
71948;BME280;63257;55.082;38.772;2023-11-21T03:00:00;99147.16;;;-7.42;77.45
71948;BME280;63257;55.082;38.772;2023-11-21T03:02:26;99152.19;;;-7.56;77.70
71948;BME280;63257;55.082;38.772;2023-11-21T03:04:52;99126.47;;;-7.70;78.18
71948;BME280;63257;55.082;38.772;2023-11-21T03:07:18;99138.53;;;-7.55;77.74
71948;BME280;63257;55.082;38.772;2023-11-21T03:09:45;99136.78;;;-7.62;78.26
71948;BME280;63257;55.082;38.772;2023-11-21T03:12:11;99151.28;;;-7.61;77.53
71948;BME280;63257;55.082;38.772;2023-11-21T03:14:41;99142.72;;;-7.67;78.25
71948;BME280;63257;55.082;38.772;2023-11-21T03:17:07;99163.28;;;-7.56;77.81
71948;BME280;63257;55.082;38.772;2023-11-21T03:19:33;99167.56;;;-7.56;77.96
71948;BME280;63257;55.082;38.772;2023-11-21T03:21:59;99183.75;;;-7.65;78.58
71948;BME280;63257;55.082;38.772;2023-11-21T03:24:25;99180.28;;;-7.69;78.60
71948;BME280;63257;55.082;38.772;2023-11-21T03:26:52;99172.59;;;-7.69;78.35
71948;BME280;63257;55.082;38.772;2023-11-21T03:29:19;99201.78;;;-7.50;77.84
71948;BME280;63257;55.082;38.772;2023-11-21T03:31:45;99184.59;;;-7.63;77.83
71948;BME280;63257;55.082;38.772;2023-11-21T03:34:16;99215.44;;;-7.55;78.08
71948;BME280;63257;55.082;38.772;2023-11-21T03:36:43;99204.34;;;-7.50;77.69
71948;BME280;63257;55.082;38.772;2023-11-21T03:39:09;99220.66;;;-7.43;77.42
71948;BME280;63257;55.082;38.772;2023-11-21T03:41:34;99214.44;;;-7.68;77.38
71948;BME280;63257;55.082;38.772;2023-11-21T03:44:00;99197.28;;;-7.80;77.66
71948;BME280;63257;55.082;38.772;2023-11-21T03:46:26;99223.09;;;-7.58;77.89
71948;BME280;63257;55.082;38.772;2023-11-21T03:48:52;99197.31;;;-7.74;77.59
71948;BME280;63257;55.082;38.772;2023-11-21T03:51:18;99188.56;;;-7.97;77.94
71948;BME280;63257;55.082;38.772;2023-11-21T03:53:43;99187.03;;;-7.81;78.38
71948;BME280;63257;55.082;38.772;2023-11-21T03:56:09;99204.25;;;-7.63;77.57
71948;BME280;63257;55.082;38.772;2023-11-21T03:58:35;99194.75;;;-7.74;77.45
71948;BME280;63257;55.082;38.772;2023-11-21T04:01:01;99203.41;;;-7.62;77.55
71948;BME280;63257;55.082;38.772;2023-11-21T04:03:27;99206.03;;;-7.53;77.51
71948;BME280;63257;55.082;38.772;2023-11-21T04:05:53;99208.56;;;-7.59;76.73
71948;BME280;63257;55.082;38.772;2023-11-21T04:08:19;99204.28;;;-7.60;77.30
71948;BME280;63257;55.082;38.772;2023-11-21T04:10:45;99202.34;;;-7.85;77.53
71948;BME280;63257;55.082;38.772;2023-11-21T04:13:11;99187.00;;;-7.83;77.82
71948;BME280;63257;55.082;38.772;2023-11-21T04:15:36;99210.22;;;-7.61;77.28
71948;BME280;63257;55.082;38.772;2023-11-21T04:18:02;99191.41;;;-7.67;76.92
71948;BME280;63257;55.082;38.772;2023-11-21T04:20:28;99197.19;;;-7.88;77.26
71948;BME280;63257;55.082;38.772;2023-11-21T04:22:54;99167.16;;;-8.06;77.70
71948;BME280;63257;55.082;38.772;2023-11-21T04:25:20;99191.34;;;-7.73;77.54
71948;BME280;63257;55.082;38.772;2023-11-21T04:27:46;99193.88;;;-7.79;77.46
71948;BME280;63257;55.082;38.772;2023-11-21T04:30:13;99195.50;;;-7.87;77.67
71948;BME280;63257;55.082;38.772;2023-11-21T04:32:40;99190.25;;;-8.01;77.69
71948;BME280;63257;55.082;38.772;2023-11-21T04:35:08;99194.59;;;-7.95;77.47
71948;BME280;63257;55.082;38.772;2023-11-21T04:37:34;99193.69;;;-7.97;77.29
71948;BME280;63257;55.082;38.772;2023-11-21T04:40:01;99192.03;;;-7.95;77.61
71948;BME280;63257;55.082;38.772;2023-11-21T04:42:30;99204.84;;;-7.92;77.89
71948;BME280;63257;55.082;38.772;2023-11-21T04:44:57;99220.22;;;-7.95;77.48
71948;BME280;63257;55.082;38.772;2023-11-21T04:47:23;99212.69;;;-7.74;77.47
71948;BME280;63257;55.082;38.772;2023-11-21T04:49:49;99219.56;;;-7.68;77.42
71948;BME280;63257;55.082;38.772;2023-11-21T04:52:15;99217.94;;;-7.60;77.24
71948;BME280;63257;55.082;38.772;2023-11-21T04:54:41;99199.94;;;-7.68;76.94
71948;BME280;63257;55.082;38.772;2023-11-21T04:57:08;99224.75;;;-7.65;76.75
71948;BME280;63257;55.082;38.772;2023-11-21T04:59:34;99220.34;;;-7.80;76.74
71948;BME280;63257;55.082;38.772;2023-11-21T05:02:01;99191.25;;;-7.84;76.83
71948;BME280;63257;55.082;38.772;2023-11-21T05:04:27;99210.19;;;-7.71;76.96
71948;BME280;63257;55.082;38.772;2023-11-21T05:06:53;99215.31;;;-7.68;76.88
71948;BME280;63257;55.082;38.772;2023-11-21T05:09:19;99227.44;;;-7.50;76.83
71948;BME280;63257;55.082;38.772;2023-11-21T05:11:45;99227.34;;;-7.60;76.41
71948;BME280;63257;55.082;38.772;2023-11-21T05:14:12;99225.56;;;-7.71;76.72
71948;BME280;63257;55.082;38.772;2023-11-21T05:16:40;99241.66;;;-7.82;77.17
71948;BME280;63257;55.082;38.772;2023-11-21T05:19:06;99231.41;;;-7.84;77.12
71948;BME280;63257;55.082;38.772;2023-11-21T05:21:32;99241.72;;;-7.76;76.66
71948;BME280;63257;55.082;38.772;2023-11-21T05:23:59;99249.38;;;-7.78;76.98
71948;BME280;63257;55.082;38.772;2023-11-21T05:26:25;99245.28;;;-7.59;76.61
71948;BME280;63257;55.082;38.772;2023-11-21T05:28:53;99232.34;;;-7.73;76.33
71948;BME280;63257;55.082;38.772;2023-11-21T05:31:20;99248.50;;;-7.81;75.79
71948;BME280;63257;55.082;38.772;2023-11-21T05:33:46;99225.47;;;-7.80;75.52
71948;BME280;63257;55.082;38.772;2023-11-21T05:36:12;99225.50;;;-7.75;75.59
71948;BME280;63257;55.082;38.772;2023-11-21T05:38:38;99230.63;;;-7.74;75.48
71948;BME280;63257;55.082;38.772;2023-11-21T05:41:04;99261.66;;;-7.46;75.22
71948;BME280;63257;55.082;38.772;2023-11-21T05:43:30;99247.84;;;-7.60;74.98
71948;BME280;63257;55.082;38.772;2023-11-21T05:45:59;99263.41;;;-7.42;75.55
71948;BME280;63257;55.082;38.772;2023-11-21T05:48:25;99254.81;;;-7.47;74.98
71948;BME280;63257;55.082;38.772;2023-11-21T05:50:52;99267.56;;;-7.52;75.55
71948;BME280;63257;55.082;38.772;2023-11-21T05:53:19;99267.59;;;-7.50;74.88
71948;BME280;63257;55.082;38.772;2023-11-21T05:55:45;99269.13;;;-7.71;75.30
71948;BME280;63257;55.082;38.772;2023-11-21T05:58:11;99269.97;;;-7.69;75.71
71948;BME280;63257;55.082;38.772;2023-11-21T06:00:39;99259.72;;;-7.69;75.61
71948;BME280;63257;55.082;38.772;2023-11-21T06:03:06;99250.31;;;-7.68;74.44
71948;BME280;63257;55.082;38.772;2023-11-21T06:05:33;99258.22;;;-7.43;75.05
71948;BME280;63257;55.082;38.772;2023-11-21T06:07:59;99289.75;;;-7.57;73.60
71948;BME280;63257;55.082;38.772;2023-11-21T06:10:27;99245.25;;;-7.65;74.10
71948;BME280;63257;55.082;38.772;2023-11-21T06:12:54;99238.41;;;-7.63;74.85
71948;BME280;63257;55.082;38.772;2023-11-21T06:15:21;99236.03;;;-7.44;74.75
71948;BME280;63257;55.082;38.772;2023-11-21T06:17:49;99270.41;;;-7.21;74.70
71948;BME280;63257;55.082;38.772;2023-11-21T06:20:19;99269.50;;;-7.26;73.62
71948;BME280;63257;55.082;38.772;2023-11-21T06:22:49;99241.16;;;-7.43;73.69
71948;BME280;63257;55.082;38.772;2023-11-21T06:25:16;99260.06;;;-7.28;73.74
71948;BME280;63257;55.082;38.772;2023-11-21T06:27:45;99267.75;;;-7.28;73.67
71948;BME280;63257;55.082;38.772;2023-11-21T06:30:13;99266.91;;;-7.29;74.05
71948;BME280;63257;55.082;38.772;2023-11-21T06:32:39;99272.13;;;-7.18;74.45
71948;BME280;63257;55.082;38.772;2023-11-21T06:35:07;99267.81;;;-7.21;73.94
71948;BME280;63257;55.082;38.772;2023-11-21T06:37:33;99248.03;;;-7.36;73.66
71948;BME280;63257;55.082;38.772;2023-11-21T06:40:00;99268.56;;;-7.34;74.00
71948;BME280;63257;55.082;38.772;2023-11-21T06:42:26;99241.06;;;-7.54;74.13
71948;BME280;63257;55.082;38.772;2023-11-21T06:44:52;99257.50;;;-7.30;74.10
71948;BME280;63257;55.082;38.772;2023-11-21T06:47:20;99269.41;;;-7.37;74.49
71948;BME280;63257;55.082;38.772;2023-11-21T06:49:46;99255.59;;;-7.54;73.99
71948;BME280;63257;55.082;38.772;2023-11-21T06:52:13;99268.66;;;-7.23;74.38
71948;BME280;63257;55.082;38.772;2023-11-21T06:54:39;99250.59;;;-7.39;74.42
71948;BME280;63257;55.082;38.772;2023-11-21T06:57:05;99277.97;;;-7.36;74.03
71948;BME280;63257;55.082;38.772;2023-11-21T06:59:31;99283.00;;;-7.48;73.48
71948;BME280;63257;55.082;38.772;2023-11-21T07:01:57;99292.47;;;-7.37;73.39
71948;BME280;63257;55.082;38.772;2023-11-21T07:04:23;99253.91;;;-7.49;72.68
71948;BME280;63257;55.082;38.772;2023-11-21T07:06:54;99284.94;;;-7.21;72.91
71948;BME280;63257;55.082;38.772;2023-11-21T07:09:20;99286.50;;;-7.37;72.53
71948;BME280;63257;55.082;38.772;2023-11-21T07:11:52;99283.94;;;-7.39;72.51
71948;BME280;63257;55.082;38.772;2023-11-21T07:14:18;99259.19;;;-7.34;71.73
71948;BME280;63257;55.082;38.772;2023-11-21T07:16:46;99283.00;;;-7.48;71.58
71948;BME280;63257;55.082;38.772;2023-11-21T07:19:13;99294.19;;;-7.40;71.37
71948;BME280;63257;55.082;38.772;2023-11-21T07:21:39;99282.28;;;-7.34;70.53
71948;BME280;63257;55.082;38.772;2023-11-21T07:24:06;99290.09;;;-7.17;70.80
71948;BME280;63257;55.082;38.772;2023-11-21T07:26:33;99270.16;;;-7.48;70.60
71948;BME280;63257;55.082;38.772;2023-11-21T07:29:00;99290.81;;;-7.35;71.27
71948;BME280;63257;55.082;38.772;2023-11-21T07:31:27;99300.41;;;-7.09;71.19
71948;BME280;63257;55.082;38.772;2023-11-21T07:33:53;99310.81;;;-6.90;70.53
71948;BME280;63257;55.082;38.772;2023-11-21T07:36:19;99320.91;;;-7.12;70.84
71948;BME280;63257;55.082;38.772;2023-11-21T07:38:46;99321.69;;;-7.21;71.76
71948;BME280;63257;55.082;38.772;2023-11-21T07:41:13;99335.34;;;-7.23;72.56
71948;BME280;63257;55.082;38.772;2023-11-21T07:43:44;99306.28;;;-7.24;72.14
71948;BME280;63257;55.082;38.772;2023-11-21T07:46:11;99341.47;;;-7.06;71.95
71948;BME280;63257;55.082;38.772;2023-11-21T07:48:42;99317.66;;;-6.92;71.67
71948;BME280;63257;55.082;38.772;2023-11-21T07:51:09;99331.44;;;-6.75;71.40
71948;BME280;63257;55.082;38.772;2023-11-21T07:53:37;99307.50;;;-6.71;71.02
71948;BME280;63257;55.082;38.772;2023-11-21T07:56:08;99307.53;;;-6.68;71.56
71948;BME280;63257;55.082;38.772;2023-11-21T07:58:35;99334.97;;;-6.57;70.51
71948;BME280;63257;55.082;38.772;2023-11-21T08:01:02;99301.47;;;-6.77;70.04
71948;BME280;63257;55.082;38.772;2023-11-21T08:03:28;99305.50;;;-7.10;70.05
71948;BME280;63257;55.082;38.772;2023-11-21T08:05:58;99326.22;;;-6.86;70.41
71948;BME280;63257;55.082;38.772;2023-11-21T08:08:24;99330.56;;;-6.77;70.65
71948;BME280;63257;55.082;38.772;2023-11-21T08:10:50;99341.66;;;-6.84;69.93
71948;BME280;63257;55.082;38.772;2023-11-21T08:13:25;99328.72;;;-6.96;69.39
71948;BME280;63257;55.082;38.772;2023-11-21T08:15:54;99323.63;;;-6.90;70.37
71948;BME280;63257;55.082;38.772;2023-11-21T08:18:20;99311.56;;;-7.04;70.14
71948;BME280;63257;55.082;38.772;2023-11-21T08:20:46;99310.78;;;-6.95;70.64
71948;BME280;63257;55.082;38.772;2023-11-21T08:23:15;99304.59;;;-7.20;71.26
71948;BME280;63257;55.082;38.772;2023-11-21T08:25:45;99325.25;;;-7.03;71.56
71948;BME280;63257;55.082;38.772;2023-11-21T08:28:11;99326.03;;;-7.10;71.52
71948;BME280;63257;55.082;38.772;2023-11-21T08:30:38;99318.47;;;-6.95;71.27
71948;BME280;63257;55.082;38.772;2023-11-21T08:33:04;99292.69;;;-7.10;71.58
71948;BME280;63257;55.082;38.772;2023-11-21T08:35:31;99304.63;;;-7.16;71.35
71948;BME280;63257;55.082;38.772;2023-11-21T08:37:56;99305.59;;;-7.00;71.51
71948;BME280;63257;55.082;38.772;2023-11-21T08:40:22;99307.41;;;-6.86;70.13
71948;BME280;63257;55.082;38.772;2023-11-21T08:42:49;99314.28;;;-6.85;69.77
71948;BME280;63257;55.082;38.772;2023-11-21T08:45:17;99297.28;;;-6.68;69.72
71948;BME280;63257;55.082;38.772;2023-11-21T08:47:43;99273.28;;;-6.70;69.45
71948;BME280;63257;55.082;38.772;2023-11-21T08:50:10;99264.47;;;-7.10;68.31
71948;BME280;63257;55.082;38.772;2023-11-21T08:52:38;99308.06;;;-7.15;67.67
71948;BME280;63257;55.082;38.772;2023-11-21T08:55:10;99293.56;;;-7.08;68.00
71948;BME280;63257;55.082;38.772;2023-11-21T08:57:39;99286.63;;;-7.20;67.73
71948;BME280;63257;55.082;38.772;2023-11-21T09:00:09;99279.84;;;-7.10;68.01
71948;BME280;63257;55.082;38.772;2023-11-21T09:02:44;99292.91;;;-6.78;67.85
71948;BME280;63257;55.082;38.772;2023-11-21T09:05:12;99283.41;;;-6.94;68.35
71948;BME280;63257;55.082;38.772;2023-11-21T09:07:40;99283.47;;;-6.85;67.92
71948;BME280;63257;55.082;38.772;2023-11-21T09:10:07;99288.41;;;-7.13;68.16
71948;BME280;63257;55.082;38.772;2023-11-21T09:12:36;99314.19;;;-6.97;69.45
71948;BME280;63257;55.082;38.772;2023-11-21T09:15:06;99313.34;;;-6.95;69.14
71948;BME280;63257;55.082;38.772;2023-11-21T09:17:33;99310.78;;;-6.95;69.79
71948;BME280;63257;55.082;38.772;2023-11-21T09:20:02;99320.22;;;-6.91;68.96
71948;BME280;63257;55.082;38.772;2023-11-21T09:22:32;99317.69;;;-6.86;67.92
71948;BME280;63257;55.082;38.772;2023-11-21T09:24:59;99321.97;;;-6.84;67.79
71948;BME280;63257;55.082;38.772;2023-11-21T09:27:25;99316.75;;;-6.97;67.30
71948;BME280;63257;55.082;38.772;2023-11-21T09:29:53;99284.94;;;-7.21;67.70
71948;BME280;63257;55.082;38.772;2023-11-21T09:32:20;99321.00;;;-7.00;67.05
71948;BME280;63257;55.082;38.772;2023-11-21T09:34:48;99310.81;;;-6.87;67.61
71948;BME280;63257;55.082;38.772;2023-11-21T09:37:16;99323.03;;;-6.55;66.58
71948;BME280;63257;55.082;38.772;2023-11-21T09:39:43;99304.09;;;-6.67;66.51
71948;BME280;63257;55.082;38.772;2023-11-21T09:42:23;99331.41;;;-6.79;67.76
71948;BME280;63257;55.082;38.772;2023-11-21T09:47:35;99326.91;;;-7.10;69.18
71948;BME280;63257;55.082;38.772;2023-11-21T09:50:05;99323.53;;;-7.01;70.08
71948;BME280;63257;55.082;38.772;2023-11-21T09:52:41;99329.81;;;-6.63;69.02
71948;BME280;63257;55.082;38.772;2023-11-21T09:55:14;99314.38;;;-6.65;68.32
71948;BME280;63257;55.082;38.772;2023-11-21T09:57:44;99323.88;;;-6.58;68.12
71948;BME280;63257;55.082;38.772;2023-11-21T10:00:11;99311.84;;;-6.60;68.39
71948;BME280;63257;55.082;38.772;2023-11-21T10:02:39;99303.13;;;-6.87;68.14
71948;BME280;63257;55.082;38.772;2023-11-21T10:05:06;99299.78;;;-6.80;67.72
71948;BME280;63257;55.082;38.772;2023-11-21T10:07:35;99326.44;;;-6.56;68.26
71948;BME280;63257;55.082;38.772;2023-11-21T10:10:01;99338.34;;;-6.68;68.11
71948;BME280;63257;55.082;38.772;2023-11-21T10:12:31;99303.94;;;-6.90;68.01
71948;BME280;63257;55.082;38.772;2023-11-21T10:14:59;99333.16;;;-6.72;67.45
71948;BME280;63257;55.082;38.772;2023-11-21T10:17:28;99334.03;;;-6.72;68.92
71948;BME280;63257;55.082;38.772;2023-11-21T10:20:03;99343.53;;;-6.58;67.94
71948;BME280;63257;55.082;38.772;2023-11-21T10:22:31;99338.38;;;-6.60;68.95
71948;BME280;63257;55.082;38.772;2023-11-21T10:24:57;99338.50;;;-6.40;68.35
71948;BME280;63257;55.082;38.772;2023-11-21T10:27:26;99335.81;;;-6.57;67.68
71948;BME280;63257;55.082;38.772;2023-11-21T10:29:53;99335.81;;;-6.60;67.49
71948;BME280;63257;55.082;38.772;2023-11-21T10:32:19;99323.03;;;-6.55;67.77
71948;BME280;63257;55.082;38.772;2023-11-21T10:34:55;99341.16;;;-6.21;67.39
71948;BME280;63257;55.082;38.772;2023-11-21T10:37:21;99314.56;;;-6.36;66.80
71948;BME280;63257;55.082;38.772;2023-11-21T10:39:47;99327.41;;;-6.33;67.37
71948;BME280;63257;55.082;38.772;2023-11-21T10:42:13;99343.00;;;-5.99;66.83
71948;BME280;63257;55.082;38.772;2023-11-21T10:44:41;99334.22;;;-6.41;66.51
71948;BME280;63257;55.082;38.772;2023-11-21T10:47:09;99329.00;;;-6.59;67.95
71948;BME280;63257;55.082;38.772;2023-11-21T10:49:37;99338.38;;;-6.65;67.74
71948;BME280;63257;55.082;38.772;2023-11-21T10:52:03;99312.63;;;-6.72;67.72
71948;BME280;63257;55.082;38.772;2023-11-21T10:54:30;99334.00;;;-6.76;67.51
71948;BME280;63257;55.082;38.772;2023-11-21T10:56:57;99367.44;;;-6.67;67.37
71948;BME280;63257;55.082;38.772;2023-11-21T10:59:26;99329.84;;;-6.56;67.14
71948;BME280;63257;55.082;38.772;2023-11-21T11:01:54;99329.75;;;-6.73;67.51
71948;BME280;63257;55.082;38.772;2023-11-21T11:04:24;99358.16;;;-6.45;67.34
71948;BME280;63257;55.082;38.772;2023-11-21T11:06:57;99353.00;;;-6.48;68.51
71948;BME280;63257;55.082;38.772;2023-11-21T11:09:27;99347.16;;;-6.22;67.60
71948;BME280;63257;55.082;38.772;2023-11-21T11:11:54;99322.25;;;-6.39;67.62
71948;BME280;63257;55.082;38.772;2023-11-21T11:14:20;99324.00;;;-6.28;68.31
71948;BME280;63257;55.082;38.772;2023-11-21T11:16:52;99355.66;;;-6.39;68.41
71948;BME280;63257;55.082;38.772;2023-11-21T11:19:19;99347.06;;;-6.42;69.07
71948;BME280;63257;55.082;38.772;2023-11-21T11:27:30;99323.94;;;-6.41;69.20
71948;BME280;63257;55.082;38.772;2023-11-21T11:35:24;99352.25;;;-6.35;68.31
71948;BME280;63257;55.082;38.772;2023-11-21T11:37:52;99337.56;;;-6.56;68.13
71948;BME280;63257;55.082;38.772;2023-11-21T11:40:20;99340.91;;;-6.66;68.66
71948;BME280;63257;55.082;38.772;2023-11-21T11:43:01;99365.72;;;-6.67;69.04
71948;BME280;63257;55.082;38.772;2023-11-21T11:45:34;99358.09;;;-6.54;68.28
71948;BME280;63257;55.082;38.772;2023-11-21T11:48:02;99363.09;;;-6.76;67.97
71948;BME280;63257;55.082;38.772;2023-11-21T11:50:29;99346.81;;;-6.78;68.11
71948;BME280;63257;55.082;38.772;2023-11-21T11:53:12;99338.13;;;-6.97;68.63
71948;BME280;63257;55.082;38.772;2023-11-21T11:55:38;99365.59;;;-6.84;67.57
71948;BME280;63257;55.082;38.772;2023-11-21T11:58:06;99358.84;;;-6.72;67.53
71948;BME280;63257;55.082;38.772;2023-11-21T12:03:00;99365.78;;;-6.56;67.74
71948;BME280;63257;55.082;38.772;2023-11-21T12:05:30;99365.53;;;-6.93;67.63
71948;BME280;63257;55.082;38.772;2023-11-21T12:08:03;99391.38;;;-6.70;67.42
71948;BME280;63257;55.082;38.772;2023-11-21T12:10:32;99375.16;;;-6.66;68.00
71948;BME280;63257;55.082;38.772;2023-11-21T12:13:01;99378.59;;;-6.63;67.33
71948;BME280;63257;55.082;38.772;2023-11-21T12:15:27;99386.97;;;-6.83;67.70
71948;BME280;63257;55.082;38.772;2023-11-21T12:17:57;99399.78;;;-6.91;69.04
71948;BME280;63257;55.082;38.772;2023-11-21T12:20:27;99384.25;;;-7.05;69.28
71948;BME280;63257;55.082;38.772;2023-11-21T12:22:54;99411.72;;;-6.91;69.10
71948;BME280;63257;55.082;38.772;2023-11-21T12:25:22;99388.47;;;-7.10;69.41
71948;BME280;63257;55.082;38.772;2023-11-21T12:27:50;99404.09;;;-6.85;69.55
71948;BME280;63257;55.082;38.772;2023-11-21T12:30:18;99400.72;;;-6.75;70.17
71948;BME280;63257;55.082;38.772;2023-11-21T12:32:45;99375.84;;;-6.88;70.29
71948;BME280;63257;55.082;38.772;2023-11-21T12:35:13;99427.94;;;-6.94;70.88
71948;BME280;63257;55.082;38.772;2023-11-21T12:37:40;99421.16;;;-6.86;70.57
71948;BME280;63257;55.082;38.772;2023-11-21T12:40:07;99410.16;;;-6.74;70.87
71948;BME280;63257;55.082;38.772;2023-11-21T12:42:48;99392.09;;;-6.88;71.19
71948;BME280;63257;55.082;38.772;2023-11-21T12:47:44;99403.16;;;-6.93;72.10
71948;BME280;63257;55.082;38.772;2023-11-21T12:50:11;99409.25;;;-6.82;71.81
71948;BME280;63257;55.082;38.772;2023-11-21T12:52:50;99415.28;;;-6.75;71.95
71948;BME280;63257;55.082;38.772;2023-11-21T12:55:17;99419.63;;;-6.67;71.61
71948;BME280;63257;55.082;38.772;2023-11-21T12:57:45;99414.47;;;-6.70;71.10
71948;BME280;63257;55.082;38.772;2023-11-21T13:00:15;99392.84;;;-6.98;71.75
71948;BME280;63257;55.082;38.772;2023-11-21T13:02:57;99412.03;;;-6.53;71.82
71948;BME280;63257;55.082;38.772;2023-11-21T13:05:35;99427.50;;;-6.45;71.03
71948;BME280;63257;55.082;38.772;2023-11-21T13:08:05;99436.84;;;-6.56;70.75
71948;BME280;63257;55.082;38.772;2023-11-21T13:10:35;99429.06;;;-6.61;71.07